Погода Сан-Кинтинна 2 недели

Нижняя Калифорния, Мексика

22 июля-03 августа
  • 22июля
    Сегодня
    +17°
    +26°
    Ясно и безоблачно
    ВремяПогодаТемператураВлажностьДавлениеВетер, м/сВероятность осадков
    02:00Практически безоблачно+18°C83 %758 мм1.5 м/с1 %
    05:00Практически безоблачно+18°C88 %757 мм1.5 м/с1 %
    08:00Ясно и безоблачно+19°C78 %758 мм1.5 м/с1 %
    11:00Ясно и безоблачно+25°C63 %758 мм3.4 м/с1 %
    14:00Ясно и безоблачно+26°C59 %757 мм4.6 м/с2 %
    17:00Ясно и безоблачно+24°C64 %756 мм4.8 м/с3 %
    20:00Ясно и безоблачно+20°C81 %757 мм3.4 м/с1 %
    23:00Ясно и безоблачно+18°C87 %757 мм2.9 м/с1 %
  • 23июля
    Вторник
    +18°
    +26°
    Ясно и безоблачно
    ВремяПогодаТемператураВлажностьДавлениеВетер, м/сВероятность осадков
    02:00Практически безоблачно+18°C92 %757 мм2.2 м/с1 %
    05:00Небольшая облачность+18°C96 %757 мм1.2 м/с1 %
    08:00Небольшая облачность+19°C85 %759 мм2.1 м/с1 %
    11:00Ясно и безоблачно+25°C67 %759 мм4.0 м/с1 %
    14:00Ясно и безоблачно+25°C60 %759 мм5.0 м/с1 %
    17:00Ясно и безоблачно+25°C65 %758 мм5.1 м/с1 %
    20:00Ясно и безоблачно+21°C82 %759 мм4.4 м/с1 %
    23:00Ясно и безоблачно+19°C88 %759 мм3.4 м/с1 %
  • 24июля
    Среда
    +18°
    +27°
    Ясно и безоблачно
    ВремяПогодаТемператураВлажностьДавлениеВетер, м/сВероятность осадков
    02:00Небольшая облачность+19°C92 %759 мм2.7 м/с1 %
    05:00Небольшая облачность+18°C96 %760 мм2.2 м/с1 %
    08:00Практически безоблачно+20°C84 %761 мм3.1 м/с1 %
    11:00Ясно и безоблачно+25°C66 %761 мм5.4 м/с1 %
    14:00Ясно и безоблачно+26°C62 %760 мм6.5 м/с1 %
    17:00Ясно и безоблачно+26°C64 %760 мм6.2 м/с1 %
    20:00Ясно и безоблачно+22°C79 %760 мм5.0 м/с1 %
    23:00Ясно и безоблачно+19°C84 %761 мм3.3 м/с1 %
  • 25июля
    Четверг
    +17°
    +27°
    Ясно и безоблачно
    ВремяПогодаТемператураВлажностьДавлениеВетер, м/сВероятность осадков
    02:00Ясно и безоблачно+19°C90 %760 мм1.7 м/с1 %
    05:00Практически безоблачно+18°C96 %760 мм2.1 м/с1 %
    08:00Ясно и безоблачно+20°C83 %760 мм3.0 м/с1 %
    11:00Ясно и безоблачно+25°C66 %760 мм4.5 м/с1 %
    14:00Ясно и безоблачно+27°C59 %760 мм5.3 м/с1 %
    17:00Практически безоблачно+26°C63 %759 мм6.0 м/с1 %
    20:00Небольшая облачность+21°C76 %759 мм4.3 м/с1 %
    23:00Ясно и безоблачно+20°C83 %760 мм3.1 м/с1 %
Мы используем cookies
Соглашаюсь